createdAt,value
2023-02-02T00:02:17.447Z,52515.01
2023-02-02T00:04:48.889Z,52514.20
2023-02-02T00:07:20.142Z,52522.64
2023-02-02T00:09:51.266Z,52511.79
2023-02-02T00:12:22.382Z,52508.18
2023-02-02T00:14:53.728Z,52511.39
2023-02-02T00:17:25.207Z,52533.09
2023-02-02T00:19:56.239Z,52523.45
2023-02-02T00:22:28.417Z,52519.02
2023-02-02T00:24:59.589Z,52500.94
2023-02-02T00:27:30.777Z,52508.98
2023-02-02T00:30:01.969Z,52532.69
2023-02-02T00:32:34.159Z,52540.73
2023-02-02T00:35:05.443Z,52516.61
2023-02-02T00:37:36.704Z,52518.22
2023-02-02T00:40:09.335Z,52531.48
2023-02-02T00:42:40.359Z,52522.24
2023-02-02T00:45:17.341Z,52521.84
2023-02-02T00:47:50.097Z,52511.79
2023-02-02T00:50:22.118Z,52526.26
2023-02-02T00:52:53.361Z,52531.08
2023-02-02T00:55:24.985Z,52531.89
2023-02-02T00:57:56.566Z,52522.24
2023-02-02T01:00:27.784Z,52517.01
2023-02-02T01:03:04.755Z,52504.16
2023-02-02T01:05:35.881Z,52518.22
2023-02-02T01:08:07.678Z,52531.08
2023-02-02T01:10:39.140Z,52540.32
2023-02-02T01:13:10.272Z,52528.67
2023-02-02T01:15:41.339Z,52539.93
2023-02-02T01:18:12.407Z,52531.08
2023-02-02T01:20:43.706Z,52525.05
2023-02-02T01:23:14.961Z,52512.99
2023-02-02T01:25:46.221Z,52529.48
2023-02-02T01:28:17.368Z,52537.51
2023-02-02T01:30:49.526Z,52529.48
2023-02-02T01:33:21.426Z,52542.74
2023-02-02T01:35:53.307Z,52530.68
2023-02-02T01:38:25.127Z,52537.11
2023-02-02T01:40:56.854Z,52547.16
2023-02-02T01:43:29.113Z,52535.10
2023-02-02T01:46:00.345Z,52522.64
2023-02-02T01:48:32.309Z,52528.67
2023-02-02T01:51:05.700Z,52513.79
2023-02-02T01:53:38.555Z,52514.20
2023-02-02T01:56:09.895Z,52535.50
2023-02-02T01:58:41.496Z,52518.22
2023-02-02T02:01:15.175Z,52538.31
2023-02-02T02:03:46.346Z,52531.89
2023-02-02T02:06:18.565Z,52531.88
2023-02-02T02:08:52.496Z,52517.01
2023-02-02T02:11:24.114Z,52522.64
2023-02-02T02:14:13.646Z,52525.46
2023-02-02T02:16:47.991Z,52525.86
2023-02-02T02:19:25.946Z,52526.26
2023-02-02T02:22:16.052Z,52541.53
2023-02-02T02:25:13.936Z,52520.23
2023-02-02T02:28:14.503Z,52513.80
2023-02-02T02:31:07.824Z,52527.06
2023-02-02T02:33:41.063Z,52541.53
2023-02-02T02:36:14.594Z,52535.90
2023-02-02T02:38:46.661Z,52531.89
2023-02-02T02:41:18.361Z,52533.09
2023-02-02T02:43:52.160Z,52521.84
2023-02-02T02:46:23.527Z,52519.82
2023-02-02T02:48:54.473Z,52535.10
2023-02-02T02:51:48.913Z,52539.93
2023-02-02T02:54:28.382Z,52534.70
2023-02-02T02:57:05.215Z,52540.73
2023-02-02T02:59:42.945Z,52509.78
2023-02-02T03:02:20.128Z,52526.26
2023-02-02T03:04:53.209Z,52529.48
2023-02-02T03:07:25.434Z,52527.06
2023-02-02T03:09:56.394Z,52545.55
2023-02-02T03:12:27.967Z,52520.63
2023-02-02T03:14:59.086Z,52514.60
2023-02-02T03:17:30.120Z,52511.39
2023-02-02T03:20:01.405Z,52516.61
2023-02-02T03:22:32.703Z,52512.99
2023-02-02T03:25:04.053Z,52523.04
2023-02-02T03:27:35.475Z,52528.67
2023-02-02T03:30:08.108Z,52517.41
2023-02-02T03:32:40.046Z,52538.71
2023-02-02T03:35:11.421Z,52508.17
2023-02-02T03:37:42.442Z,52515.41
2023-02-02T03:40:14.338Z,52520.63
2023-02-02T03:42:46.386Z,52524.65
2023-02-02T03:45:18.522Z,52531.08
2023-02-02T03:47:49.821Z,52516.61
2023-02-02T03:50:21.134Z,52528.27
2023-02-02T03:52:52.100Z,52504.16
2023-02-02T03:55:23.450Z,52525.86
2023-02-02T03:57:55.053Z,52510.99
2023-02-02T04:00:26.210Z,52516.21
2023-02-02T04:02:57.491Z,52508.17
2023-02-02T04:05:29.997Z,52508.98
2023-02-02T04:08:01.303Z,52508.98
2023-02-02T04:10:32.516Z,52521.84
2023-02-02T04:13:03.873Z,52518.22
2023-02-02T04:15:34.854Z,52524.65
2023-02-02T04:18:06.221Z,52527.86
2023-02-02T04:20:38.022Z,52515.41
2023-02-02T04:23:09.229Z,52510.99
2023-02-02T04:25:40.924Z,52522.64
2023-02-02T04:28:11.983Z,52512.59
2023-02-02T04:30:43.056Z,52512.59
2023-02-02T04:33:14.137Z,52507.77
2023-02-02T04:35:45.494Z,52522.64
2023-02-02T04:38:16.503Z,52536.71
2023-02-02T04:40:47.989Z,52506.97
2023-02-02T04:43:23.478Z,52532.69
2023-02-02T04:45:57.858Z,52525.46
2023-02-02T04:48:29.239Z,52522.64
2023-02-02T04:51:03.189Z,52511.79
2023-02-02T04:53:34.597Z,52511.39
2023-02-02T04:56:08.506Z,52534.70
2023-02-02T04:58:39.677Z,52510.58
2023-02-02T05:01:11.697Z,52529.88
2023-02-02T05:03:42.707Z,52518.22
2023-02-02T05:06:15.895Z,52513.39
2023-02-02T05:08:48.189Z,52497.73
2023-02-02T05:11:19.773Z,52510.18
2023-02-02T05:13:55.674Z,52498.13
2023-02-02T05:16:28.909Z,52517.02
2023-02-02T05:19:00.811Z,52512.99
2023-02-02T05:21:32.622Z,52522.64
2023-02-02T05:24:04.138Z,52517.01
2023-02-02T05:26:35.835Z,52509.78
2023-02-02T05:29:11.829Z,52527.06
2023-02-02T05:31:43.143Z,52515.00
2023-02-02T05:34:14.372Z,52500.54
2023-02-02T05:36:45.618Z,52510.59
2023-02-02T05:39:16.608Z,52508.57
2023-02-02T05:41:47.948Z,52504.16
2023-02-02T05:44:18.920Z,52523.85
2023-02-02T05:46:50.378Z,52505.36
2023-02-02T05:49:21.695Z,52495.31
2023-02-02T05:51:55.493Z,52510.18
2023-02-02T05:54:27.269Z,52513.39
2023-02-02T05:57:01.569Z,52495.31
2023-02-02T05:59:37.433Z,52511.79
2023-02-02T06:02:08.729Z,52519.82
2023-02-02T06:04:39.838Z,52506.96
2023-02-02T06:07:10.898Z,52504.55
2023-02-02T06:09:42.304Z,52523.04
2023-02-02T06:12:13.349Z,52503.75
2023-02-02T06:14:44.419Z,52501.34
2023-02-02T06:17:15.939Z,52511.79
2023-02-02T06:19:46.945Z,52512.20
2023-02-02T06:22:18.284Z,52514.20
2023-02-02T06:24:49.347Z,52504.15
2023-02-02T06:27:20.510Z,52515.41
2023-02-02T06:29:51.541Z,52496.12
2023-02-02T06:32:22.931Z,52522.64
2023-02-02T06:34:54.571Z,52509.38
2023-02-02T06:37:25.618Z,52515.01
2023-02-02T06:39:56.965Z,52514.20
2023-02-02T06:42:28.390Z,52509.38
2023-02-02T06:44:59.452Z,52510.58
2023-02-02T06:47:30.621Z,52502.14
2023-02-02T06:50:01.600Z,52523.04
2023-02-02T06:52:33.376Z,52518.62
2023-02-02T06:55:04.990Z,52517.82
2023-02-02T06:57:36.249Z,52515.41
2023-02-02T07:00:09.033Z,52523.04
2023-02-02T07:02:41.665Z,52502.14
2023-02-02T07:05:12.803Z,52497.73
2023-02-02T07:07:44.683Z,52494.51
2023-02-02T07:11:13.856Z,52497.73
2023-02-02T07:13:07.493Z,52500.94
2023-02-02T07:15:42.682Z,52500.94
2023-02-02T07:18:13.674Z,52517.41
2023-02-02T07:20:45.286Z,52502.95
2023-02-02T07:23:17.048Z,52494.91
2023-02-02T07:25:48.402Z,52500.94
2023-02-02T07:28:19.431Z,52495.31
2023-02-02T07:30:51.151Z,52501.74
2023-02-02T07:33:22.787Z,52500.14
2023-02-02T07:35:53.818Z,52489.69
2023-02-02T07:38:24.912Z,52506.16
2023-02-02T07:40:56.327Z,52512.20
2023-02-02T07:43:27.425Z,52488.88
2023-02-02T07:46:02.235Z,52488.48
2023-02-02T07:48:34.637Z,52486.88
2023-02-02T07:51:06.574Z,52507.77
2023-02-02T07:53:38.322Z,52492.90
2023-02-02T07:56:13.040Z,52490.89
2023-02-02T07:58:44.298Z,52486.88
2023-02-02T08:01:16.344Z,52490.49
2023-02-02T08:03:48.040Z,52473.61
2023-02-02T08:06:20.026Z,52494.51
2023-02-02T08:08:51.767Z,52489.69
2023-02-02T08:11:24.415Z,52497.73
2023-02-02T08:13:57.060Z,52495.72
2023-02-02T08:16:30.835Z,52488.48
2023-02-02T08:19:02.353Z,52477.63
2023-02-02T08:21:35.276Z,52476.82
2023-02-02T08:24:06.585Z,52468.79
2023-02-02T08:26:38.281Z,52465.98
2023-02-02T08:29:10.706Z,52456.73
2023-02-02T08:31:42.218Z,52478.43
2023-02-02T08:34:14.287Z,52480.04
2023-02-02T08:36:45.530Z,52451.11
2023-02-02T08:39:17.500Z,52471.60
2023-02-02T08:41:48.923Z,52455.52
2023-02-02T08:44:20.218Z,52457.93
2023-02-02T08:46:55.032Z,52449.09
2023-02-02T08:49:26.420Z,52447.49
2023-02-02T08:51:57.503Z,52431.41
2023-02-02T08:54:31.115Z,52437.44
2023-02-02T08:57:02.382Z,52449.90
2023-02-02T08:59:34.730Z,52433.82
2023-02-02T09:02:05.834Z,52433.43
2023-02-02T09:04:37.908Z,52447.89
2023-02-02T09:07:09.206Z,52442.66
2023-02-02T09:09:40.356Z,52451.50
2023-02-02T09:12:11.839Z,52454.72
2023-02-02T09:14:45.329Z,52458.34
2023-02-02T09:17:16.435Z,52450.30
2023-02-02T09:19:49.623Z,52442.66
2023-02-02T09:22:21.695Z,52469.59
2023-02-02T09:24:54.543Z,52442.26
2023-02-02T09:27:26.470Z,52440.25
2023-02-02T09:29:58.171Z,52443.47
2023-02-02T09:32:30.523Z,52443.07
2023-02-02T09:35:01.675Z,52441.86
2023-02-02T09:37:36.176Z,52446.69
2023-02-02T09:40:10.168Z,52448.29
2023-02-02T09:42:47.952Z,52451.91
2023-02-02T09:45:21.252Z,52422.57
2023-02-02T09:47:56.267Z,52454.32
2023-02-02T09:50:43.099Z,52473.21
2023-02-02T09:53:17.181Z,52460.75
2023-02-02T09:55:48.904Z,52452.31
2023-02-02T09:58:22.390Z,52455.93
2023-02-02T10:00:54.766Z,52471.60
2023-02-02T10:03:29.017Z,52462.76
2023-02-02T10:06:03.039Z,52465.18
2023-02-02T10:08:38.028Z,52463.16
2023-02-02T10:11:16.080Z,52462.36
2023-02-02T10:13:49.011Z,52468.39
2023-02-02T10:16:20.324Z,52458.74
2023-02-02T10:18:52.272Z,52469.59
2023-02-02T10:21:25.531Z,52482.86
2023-02-02T10:23:59.621Z,52478.84
2023-02-02T10:26:32.865Z,52471.20
2023-02-02T10:29:07.138Z,52475.62
2023-02-02T10:31:43.272Z,52482.05
2023-02-02T10:34:17.384Z,52483.66
2023-02-02T10:37:05.053Z,52484.05
2023-02-02T10:39:39.020Z,52473.61
2023-02-02T10:42:15.117Z,52483.26
2023-02-02T10:44:49.217Z,52476.82
2023-02-02T10:47:22.526Z,52470.80
2023-02-02T10:49:56.511Z,52492.90
2023-02-02T10:52:28.561Z,52500.54
2023-02-02T10:55:03.939Z,52478.03
2023-02-02T10:57:44.594Z,52484.46
2023-02-02T11:00:22.394Z,52484.06
2023-02-02T11:02:54.242Z,52488.07
2023-02-02T11:05:42.987Z,52477.23
2023-02-02T11:08:15.796Z,52500.94
2023-02-02T11:10:47.565Z,52486.07
2023-02-02T11:13:21.481Z,52484.05
2023-02-02T11:15:52.800Z,52491.29
2023-02-02T11:18:29.325Z,52475.62
2023-02-02T11:21:00.441Z,52489.28
2023-02-02T11:23:34.092Z,52468.39
2023-02-02T11:26:07.711Z,52478.02
2023-02-02T11:28:39.107Z,52483.66
2023-02-02T11:31:10.176Z,52502.14
2023-02-02T11:33:41.437Z,52486.87
2023-02-02T11:36:21.029Z,52484.05
2023-02-02T11:38:52.168Z,52478.03
2023-02-02T11:41:23.640Z,52465.98
2023-02-02T11:43:55.212Z,52455.52
2023-02-02T11:46:29.542Z,52439.05
2023-02-02T11:49:01.802Z,52431.01
2023-02-02T11:51:33.478Z,52427.39
2023-02-02T11:54:06.799Z,52433.42
2023-02-02T11:56:38.629Z,52409.71
2023-02-02T11:59:12.907Z,52389.62
2023-02-02T12:01:45.011Z,52404.49
2023-02-02T12:04:25.077Z,52392.83
2023-02-02T12:06:57.393Z,52399.66
2023-02-02T12:09:29.093Z,52391.23
2023-02-02T12:12:02.579Z,52370.73
2023-02-02T12:14:36.008Z,52378.77
2023-02-02T12:17:10.963Z,52381.18
2023-02-02T12:19:47.145Z,52378.77
2023-02-02T12:22:22.953Z,52371.53
2023-02-02T12:24:55.501Z,52372.74
2023-02-02T12:27:32.097Z,52394.84
2023-02-02T12:30:10.195Z,52371.13
2023-02-02T12:32:49.881Z,52379.57
2023-02-02T12:35:29.146Z,52381.58
2023-02-02T12:38:03.517Z,52352.64
2023-02-02T12:40:51.634Z,52361.89
2023-02-02T12:43:26.866Z,52358.27
2023-02-02T12:46:02.092Z,52349.83
2023-02-02T12:48:40.068Z,52352.64
2023-02-02T12:51:15.177Z,52357.47
2023-02-02T12:54:34.743Z,52363.49
2023-02-02T12:56:52.065Z,52352.24
2023-02-02T12:59:26.279Z,52336.97
2023-02-02T13:02:03.947Z,52344.21
2023-02-02T13:07:30.272Z,52346.21
2023-02-02T13:10:20.966Z,52343.40
2023-02-02T13:12:54.268Z,52359.88
2023-02-02T13:15:28.577Z,52370.73
2023-02-02T13:18:00.636Z,52371.13
2023-02-02T13:20:37.901Z,52367.91
2023-02-02T13:23:11.232Z,52365.11
2023-02-02T13:25:44.729Z,52373.14
2023-02-02T13:28:17.864Z,52377.56
2023-02-02T13:30:49.225Z,52363.90
2023-02-02T13:33:21.818Z,52373.14
2023-02-02T13:35:53.714Z,52394.44
2023-02-02T13:38:25.359Z,52389.21
2023-02-02T13:40:57.016Z,52396.85
2023-02-02T13:43:31.677Z,52392.02
2023-02-02T13:46:06.251Z,52370.32
2023-02-02T13:48:39.648Z,52396.45
2023-02-02T13:51:24.478Z,52378.37
2023-02-02T13:54:01.337Z,52392.83
2023-02-02T13:56:43.175Z,52405.29
2023-02-02T13:59:29.232Z,52400.87
2023-02-02T14:02:00.350Z,52400.07
2023-02-02T14:04:31.735Z,52412.12
2023-02-02T14:07:07.311Z,52409.71
2023-02-02T14:09:38.986Z,52433.82
2023-02-02T14:12:11.605Z,52428.60
2023-02-02T14:14:45.107Z,52432.21
2023-02-02T14:17:29.935Z,52445.88
2023-02-02T14:20:01.449Z,52450.30
2023-02-02T14:22:45.847Z,52455.93
2023-02-02T14:25:34.311Z,52464.77
2023-02-02T14:28:06.051Z,52480.04
2023-02-02T14:30:38.907Z,52450.71
2023-02-02T14:33:28.671Z,52468.39
2023-02-02T14:36:03.591Z,52464.37
2023-02-02T14:38:54.668Z,52465.98
2023-02-02T14:41:41.370Z,52462.36
2023-02-02T14:44:12.358Z,52476.02
2023-02-02T14:46:48.856Z,52482.05
2023-02-02T14:49:20.865Z,52479.24
2023-02-02T14:51:59.332Z,52481.25
2023-02-02T14:54:35.574Z,52483.26
2023-02-02T14:57:19.745Z,52484.06
2023-02-02T14:59:55.345Z,52493.30
2023-02-02T15:02:26.833Z,52475.22
2023-02-02T15:05:04.965Z,52493.70
2023-02-02T15:07:54.743Z,52494.51
2023-02-02T15:10:43.124Z,52496.11
2023-02-02T15:13:15.277Z,52500.13
2023-02-02T15:15:48.337Z,52493.30
2023-02-02T15:18:20.229Z,52505.76
2023-02-02T15:20:51.525Z,52492.50
2023-02-02T15:23:26.001Z,52496.51
2023-02-02T15:25:58.350Z,52491.29
2023-02-02T15:28:31.312Z,52506.96
2023-02-02T15:31:07.127Z,52481.24
2023-02-02T15:33:39.913Z,52500.14
2023-02-02T15:36:13.043Z,52503.35
2023-02-02T15:38:44.809Z,52502.14
2023-02-02T15:41:17.880Z,52518.63
2023-02-02T15:43:53.637Z,52502.54
2023-02-02T15:46:26.467Z,52512.59
2023-02-02T15:49:31.447Z,52513.80
2023-02-02T15:52:12.931Z,52510.99
2023-02-02T15:54:53.517Z,52512.59
2023-02-02T15:57:26.350Z,52496.12
2023-02-02T15:59:58.045Z,52525.05
2023-02-02T16:02:31.520Z,52519.02
2023-02-02T16:05:02.831Z,52502.54
2023-02-02T16:07:34.177Z,52503.75
2023-02-02T16:10:05.836Z,52502.54
2023-02-02T16:12:37.348Z,52513.40
2023-02-02T16:15:17.980Z,52500.14
2023-02-02T16:18:01.191Z,52514.61
2023-02-02T16:20:35.433Z,52493.71
2023-02-02T16:23:07.029Z,52508.18
2023-02-02T16:25:38.877Z,52491.29
2023-02-02T16:28:12.871Z,52498.93
2023-02-02T16:30:44.697Z,52512.59
2023-02-02T16:33:32.051Z,52501.34
2023-02-02T16:36:06.121Z,52500.53
2023-02-02T16:38:40.947Z,52502.14
2023-02-02T16:41:15.462Z,52501.74
2023-02-02T16:43:46.547Z,52488.89
2023-02-02T16:46:18.250Z,52509.78
2023-02-02T16:48:56.992Z,52502.54
2023-02-02T16:51:28.622Z,52516.21
2023-02-02T16:54:00.364Z,52496.92
2023-02-02T16:56:32.951Z,52510.99
2023-02-02T16:59:05.435Z,52504.55
2023-02-02T17:01:40.176Z,52514.60
2023-02-02T17:04:19.097Z,52512.19
2023-02-02T17:06:53.157Z,52512.99
2023-02-02T17:09:35.653Z,52515.41
2023-02-02T17:12:33.217Z,52491.29
2023-02-02T17:15:26.033Z,52519.02
2023-02-02T17:17:59.732Z,52504.55
2023-02-02T17:20:32.818Z,52514.61
2023-02-02T17:23:10.146Z,52502.95
2023-02-02T17:25:42.541Z,52491.29
2023-02-02T17:28:16.203Z,52507.77
2023-02-02T17:30:47.572Z,52506.56
2023-02-02T17:33:19.930Z,52504.16
2023-02-02T17:35:57.453Z,52489.69
2023-02-02T17:38:29.314Z,52484.46
2023-02-02T17:41:01.793Z,52502.54
2023-02-02T17:43:34.419Z,52507.77
2023-02-02T17:46:11.764Z,52491.70
2023-02-02T17:48:43.295Z,52476.43
2023-02-02T17:51:16.450Z,52508.98
2023-02-02T17:53:47.585Z,52498.52
2023-02-02T17:56:18.819Z,52497.32
2023-02-02T17:58:50.243Z,52504.96
2023-02-02T18:01:21.386Z,52503.35
2023-02-02T18:03:55.688Z,52504.96
2023-02-02T18:06:27.924Z,52488.88
2023-02-02T18:08:58.887Z,52502.14
2023-02-02T18:11:29.917Z,52500.14
2023-02-02T18:14:01.152Z,52498.93
2023-02-02T18:16:36.807Z,52493.30
2023-02-02T18:19:08.046Z,52504.96
2023-02-02T18:21:39.260Z,52508.57
2023-02-02T18:24:10.340Z,52493.71
2023-02-02T18:26:46.919Z,52505.76
2023-02-02T18:29:18.478Z,52492.09
2023-02-02T18:31:50.460Z,52495.31
2023-02-02T18:34:24.218Z,52502.14
2023-02-02T18:36:55.969Z,52502.54
2023-02-02T18:39:27.317Z,52492.09
2023-02-02T18:41:58.830Z,52493.30
2023-02-02T18:44:31.916Z,52503.35
2023-02-02T18:47:03.636Z,52500.54
2023-02-02T18:49:36.162Z,52507.77
2023-02-02T18:52:07.549Z,52490.09
2023-02-02T18:54:39.081Z,52500.94
2023-02-02T18:57:14.113Z,52496.92
2023-02-02T18:59:45.504Z,52507.37
2023-02-02T19:02:17.391Z,52501.74
2023-02-02T19:05:02.501Z,52492.90
2023-02-02T19:07:51.608Z,52496.52
2023-02-02T19:10:23.272Z,52500.54
2023-02-02T19:12:56.815Z,52493.30
2023-02-02T19:15:28.010Z,52512.59
2023-02-02T19:17:59.485Z,52473.61
2023-02-02T19:20:30.961Z,52489.29
2023-02-02T19:23:04.021Z,52492.90
2023-02-02T19:25:35.218Z,52486.88
2023-02-02T19:28:10.019Z,52505.36
2023-02-02T19:30:45.375Z,52502.95
2023-02-02T19:33:17.064Z,52507.37
2023-02-02T19:35:49.747Z,52486.87
2023-02-02T19:38:21.919Z,52484.46
2023-02-02T19:40:53.135Z,52497.73
2023-02-02T19:43:27.270Z,52480.84
2023-02-02T19:45:58.984Z,52467.58
2023-02-02T19:48:31.560Z,52495.71
2023-02-02T19:51:03.998Z,52497.32
2023-02-02T19:53:36.793Z,52491.70
2023-02-02T19:56:13.997Z,52494.11
2023-02-02T19:58:45.461Z,52492.09
2023-02-02T20:01:19.861Z,52507.37
2023-02-02T20:03:52.691Z,52498.13
2023-02-02T20:06:24.018Z,52506.16
2023-02-02T20:08:55.233Z,52494.91
2023-02-02T20:11:32.468Z,52507.77
2023-02-02T20:14:04.723Z,52507.77
2023-02-02T20:16:37.717Z,52492.09
2023-02-02T20:19:11.349Z,52489.28
2023-02-02T20:21:43.633Z,52502.15
2023-02-02T20:24:18.466Z,52505.36
2023-02-02T20:26:51.466Z,52476.02
2023-02-02T20:29:24.452Z,52490.49
2023-02-02T20:31:56.631Z,52501.74
2023-02-02T20:34:28.285Z,52505.76
2023-02-02T20:37:01.114Z,52506.57
2023-02-02T20:39:33.733Z,52508.18
2023-02-02T20:42:04.939Z,52484.86
2023-02-02T20:44:36.513Z,52503.35
2023-02-02T20:47:08.992Z,52500.54
2023-02-02T20:49:46.103Z,52489.29
2023-02-02T20:52:28.272Z,52501.74
2023-02-02T20:54:59.613Z,52496.12
2023-02-02T20:57:32.571Z,52496.92
2023-02-02T21:00:04.119Z,52493.71
2023-02-02T21:02:35.756Z,52503.75
2023-02-02T21:05:10.919Z,52502.55
2023-02-02T21:07:43.654Z,52500.94
2023-02-02T21:10:14.972Z,52486.47
2023-02-02T21:12:50.092Z,52502.95
2023-02-02T21:15:23.760Z,52516.61
2023-02-02T21:17:55.465Z,52504.15
2023-02-02T21:20:26.834Z,52492.09
2023-02-02T21:22:59.244Z,52494.51
2023-02-02T21:25:30.329Z,52496.92
2023-02-02T21:28:01.500Z,52508.98
2023-02-02T21:30:32.846Z,52506.56
2023-02-02T21:33:07.133Z,52494.11
2023-02-02T21:35:38.370Z,52494.11
2023-02-02T21:38:12.411Z,52490.49
2023-02-02T21:40:44.596Z,52495.72
2023-02-02T21:43:17.356Z,52521.84
2023-02-02T21:45:50.724Z,52500.94
2023-02-02T21:48:28.087Z,52508.57
2023-02-02T21:51:00.039Z,52505.36
2023-02-02T21:53:32.164Z,52513.80
2023-02-02T21:56:03.714Z,52503.76
2023-02-02T21:58:38.677Z,52514.20
2023-02-02T22:01:18.532Z,52511.39
2023-02-02T22:03:50.078Z,52508.57
2023-02-02T22:06:25.421Z,52498.53
2023-02-02T22:08:58.375Z,52524.25
2023-02-02T22:11:31.470Z,52515.41
2023-02-02T22:14:13.142Z,52520.63
2023-02-02T22:16:48.880Z,52513.80
2023-02-02T22:19:32.902Z,52506.56
2023-02-02T22:22:13.583Z,52513.80
2023-02-02T22:24:44.584Z,52527.87
2023-02-02T22:27:32.875Z,52534.29
2023-02-02T22:30:13.335Z,52523.45
2023-02-02T22:32:46.514Z,52525.45
2023-02-02T22:35:32.364Z,52522.24
2023-02-02T22:38:24.527Z,52522.64
2023-02-02T22:40:59.291Z,52521.04
2023-02-02T22:43:32.768Z,52517.01
2023-02-02T22:46:03.790Z,52523.84
2023-02-02T22:48:36.504Z,52517.41
2023-02-02T22:51:08.765Z,52516.61
2023-02-02T22:53:40.480Z,52529.48
2023-02-02T22:56:11.600Z,52547.96
2023-02-02T22:58:47.545Z,52523.04
2023-02-02T23:01:20.625Z,52533.89
2023-02-02T23:03:53.330Z,52527.87
2023-02-02T23:06:24.748Z,52523.04
2023-02-02T23:09:03.698Z,52529.88
2023-02-02T23:11:34.603Z,52525.46
2023-02-02T23:14:07.409Z,52526.26
2023-02-02T23:16:39.122Z,52541.13
2023-02-02T23:19:11.077Z,52531.08
2023-02-02T23:21:43.051Z,52537.11
2023-02-02T23:24:14.216Z,52520.64
2023-02-02T23:26:45.564Z,52508.98
2023-02-02T23:29:16.645Z,52545.15
2023-02-02T23:31:48.280Z,52537.91
2023-02-02T23:34:19.580Z,52544.34
2023-02-02T23:36:53.883Z,52523.45
2023-02-02T23:39:25.047Z,52528.68
2023-02-02T23:41:56.605Z,52531.48
2023-02-02T23:44:27.749Z,52527.06
2023-02-02T23:46:58.953Z,52549.56
2023-02-02T23:49:30.195Z,52534.70
2023-02-02T23:52:01.594Z,52519.83
2023-02-02T23:54:33.872Z,52544.34
2023-02-02T23:57:04.830Z,52545.95
2023-02-02T23:59:35.923Z,52545.15
